Terminal Aerodrome Forecast
Issued by NWS

Home | Current Version | Previous Version | Text Only | Print | Product List | Glossary On
Versions: 1 2 3 4 5 6 7 8 9 10 11 12 13
652
FTPA31 PHFO 242336
TAFHNY
TAF
PHNY 242336Z 2500/2524 24008KT P6SM VCSH FEW020 BKN030
     FM250500 05010KT P6SM FEW020 SCT040
     FM252100 05015KT P6SM VCSH FEW020 BKN030
      AMD NOT SKED=

USA.gov is the U.S. government's official web portal to all federal, state and local government web resources and services.